Avalon, California
Current Conditions -  °F | °C
As of 3:51 PM on Saturday 25 Oct 2014 (Local Time) from KAVX Reporting Station
Clear Clear  
Wind Chill: 67°   Ceiling: Unl
Heat Index: 67°   Visibility: 10mi
Dew Point: 57°   Wind: 9mph
Humidity: 70%   Direction: 260°W
Pressure: 30.07"   Gusts: NA
Location:  33.34°N, 118.33°W
Report Text: KAVX 252251Z AUTO 26008KT 10SM CLR 19/14 A3007 RMK AO2 SLP160 T01940139
Loading
Personal Weather Stations






























Interactive Weather Map New forecast layout! Learn more

10-Day Weather Forecast

Advertisements
Track Severe Weather on mobile